This is the latest recevied weather packets stored in our database for station/object SR7U-1. If no packets are shown the sender has not sent any weather packets the latest 10 day(s).
| Time | Temp. | Humidity | Pressure | Rain* | Wind** | Luminosity | Snow |
|---|---|---|---|---|---|---|---|
| 1778106703 | 15° C | 78% | 1006.5 hPa | - | - | - | - |
| 1778105810 | 14.44° C | 79% | 1006.5 hPa | - | - | - | - |
| 1778104939 | 15.56° C | 75% | 1006.5 hPa | - | - | - | - |
| 1778104080 | 15.56° C | 73% | 1006.6 hPa | - | - | - | - |
| 1778103265 | 15.56° C | 71% | 1006.5 hPa | - | - | - | - |
| 1778102430 | 14.44° C | 77% | 1006.6 hPa | - | - | - | - |
| 1778101685 | 14.44° C | 77% | 1006.7 hPa | - | - | - | - |
| 1778100955 | 15° C | 75% | 1006.6 hPa | - | - | - | - |
| 1778100235 | 15° C | 75% | 1006.7 hPa | - | - | - | - |
| 1778099367 | 15° C | 76% | 1006.7 hPa | - | - | - | - |
| 1778098562 | 15.56° C | 75% | 1006.8 hPa | - | - | - | - |
| 1778097752 | 15.56° C | 74% | 1006.7 hPa | - | - | - | - |
| 1778097011 | 15.56° C | 73% | 1006.7 hPa | - | - | - | - |
| 1778096263 | 16.11° C | 72% | 1006.7 hPa | - | - | - | - |
| 1778095495 | 16.11° C | 72% | 1006.7 hPa | - | - | - | - |
| 1778094655 | 16.11° C | 73% | 1006.9 hPa | - | - | - | - |
| 1778093780 | 16.11° C | 74% | 1006.8 hPa | - | - | - | - |
| 1778092905 | 16.67° C | 70% | 1006.9 hPa | - | - | - | - |
| 1778092024 | 17.22° C | 69% | 1007 hPa | - | - | - | - |
| 1778091160 | 18.33° C | 64% | 1006.6 hPa | - | - | - | - |
| 1778090302 | 20° C | 56% | 1006 hPa | - | - | - | - |
| 1778089485 | 20° C | 53% | 1005.7 hPa | - | - | - | - |
| 1778088759 | 20° C | 56% | 1005.5 hPa | - | - | - | - |
| 1778088012 | 21.11° C | 53% | 1005.6 hPa | - | - | - | - |
| 1778087119 | 21.67° C | 48% | 1005.5 hPa | - | - | - | - |
* Rain since midnight (hover to see other rain measurements)
** Current wind speed in m/s (hover to see current wind gust speed)